sensor_id;sensor_type;location;lat;lon;timestamp;P1;durP1;ratioP1;P2;durP2;ratioP2
25349;SDS011;13302;48.796;11.978;2022-10-22T00:01:49;6.83;;;6.20;;
25349;SDS011;13302;48.796;11.978;2022-10-22T00:04:36;6.50;;;5.97;;
25349;SDS011;13302;48.796;11.978;2022-10-22T00:07:23;7.13;;;6.43;;
25349;SDS011;13302;48.796;11.978;2022-10-22T00:10:11;6.97;;;6.27;;
25349;SDS011;13302;48.796;11.978;2022-10-22T00:12:58;6.80;;;6.30;;
25349;SDS011;13302;48.796;11.978;2022-10-22T00:15:46;7.30;;;6.70;;
25349;SDS011;13302;48.796;11.978;2022-10-22T00:18:33;6.90;;;6.37;;
25349;SDS011;13302;48.796;11.978;2022-10-22T00:21:20;6.70;;;6.10;;
25349;SDS011;13302;48.796;11.978;2022-10-22T00:24:07;5.83;;;5.40;;
25349;SDS011;13302;48.796;11.978;2022-10-22T00:26:54;6.50;;;5.90;;
25349;SDS011;13302;48.796;11.978;2022-10-22T00:29:41;6.00;;;5.57;;
25349;SDS011;13302;48.796;11.978;2022-10-22T00:32:28;6.23;;;5.73;;
25349;SDS011;13302;48.796;11.978;2022-10-22T00:35:15;6.20;;;5.70;;
25349;SDS011;13302;48.796;11.978;2022-10-22T00:38:02;7.00;;;6.40;;
25349;SDS011;13302;48.796;11.978;2022-10-22T00:40:50;6.87;;;6.13;;
25349;SDS011;13302;48.796;11.978;2022-10-22T00:43:58;8.17;;;7.37;;
25349;SDS011;13302;48.796;11.978;2022-10-22T00:46:46;8.10;;;6.13;;
25349;SDS011;13302;48.796;11.978;2022-10-22T00:49:33;6.87;;;6.20;;
25349;SDS011;13302;48.796;11.978;2022-10-22T00:52:20;6.83;;;6.33;;
25349;SDS011;13302;48.796;11.978;2022-10-22T00:55:08;6.50;;;6.00;;
25349;SDS011;13302;48.796;11.978;2022-10-22T00:57:56;6.60;;;6.00;;
25349;SDS011;13302;48.796;11.978;2022-10-22T01:00:44;6.80;;;6.13;;
25349;SDS011;13302;48.796;11.978;2022-10-22T01:03:31;6.60;;;6.00;;
25349;SDS011;13302;48.796;11.978;2022-10-22T01:06:28;7.37;;;6.67;;
25349;SDS011;13302;48.796;11.978;2022-10-22T01:16:11;6.67;;;6.17;;
25349;SDS011;13302;48.796;11.978;2022-10-22T01:18:53;7.20;;;6.67;;
25349;SDS011;13302;48.796;11.978;2022-10-22T01:21:55;8.10;;;7.40;;
25349;SDS011;13302;48.796;11.978;2022-10-22T01:31:49;8.17;;;6.63;;
25349;SDS011;13302;48.796;11.978;2022-10-22T01:34:43;8.17;;;6.03;;
25349;SDS011;13302;48.796;11.978;2022-10-22T01:37:36;6.07;;;4.93;;
25349;SDS011;13302;48.796;11.978;2022-10-22T01:40:28;6.50;;;4.60;;
25349;SDS011;13302;48.796;11.978;2022-10-22T01:43:15;4.70;;;4.27;;
25349;SDS011;13302;48.796;11.978;2022-10-22T01:46:03;4.00;;;3.70;;
25349;SDS011;13302;48.796;11.978;2022-10-22T01:52:03;4.20;;;3.80;;
25349;SDS011;13302;48.796;11.978;2022-10-22T01:55:04;3.57;;;3.27;;
25349;SDS011;13302;48.796;11.978;2022-10-22T02:01:12;5.23;;;3.07;;
25349;SDS011;13302;48.796;11.978;2022-10-22T02:04:17;3.90;;;3.60;;
25349;SDS011;13302;48.796;11.978;2022-10-22T02:07:22;3.80;;;3.47;;
25349;SDS011;13302;48.796;11.978;2022-10-22T02:10:13;5.00;;;3.50;;
25349;SDS011;13302;48.796;11.978;2022-10-22T02:13:03;3.50;;;3.20;;
25349;SDS011;13302;48.796;11.978;2022-10-22T02:15:54;3.63;;;3.33;;
25349;SDS011;13302;48.796;11.978;2022-10-22T02:18:43;4.23;;;3.80;;
25349;SDS011;13302;48.796;11.978;2022-10-22T02:21:33;4.93;;;4.20;;
25349;SDS011;13302;48.796;11.978;2022-10-22T02:24:20;4.30;;;4.00;;
25349;SDS011;13302;48.796;11.978;2022-10-22T02:27:08;4.77;;;3.90;;
25349;SDS011;13302;48.796;11.978;2022-10-22T02:30:13;4.80;;;4.10;;
25349;SDS011;13302;48.796;11.978;2022-10-22T02:33:08;4.30;;;4.00;;
25349;SDS011;13302;48.796;11.978;2022-10-22T02:36:05;4.87;;;3.93;;
25349;SDS011;13302;48.796;11.978;2022-10-22T02:38:53;4.63;;;4.27;;
25349;SDS011;13302;48.796;11.978;2022-10-22T02:41:41;4.43;;;4.07;;
25349;SDS011;13302;48.796;11.978;2022-10-22T02:44:29;4.43;;;4.03;;
25349;SDS011;13302;48.796;11.978;2022-10-22T02:47:16;4.67;;;4.20;;
25349;SDS011;13302;48.796;11.978;2022-10-22T02:50:03;4.43;;;4.20;;
25349;SDS011;13302;48.796;11.978;2022-10-22T02:52:55;4.33;;;3.93;;
25349;SDS011;13302;48.796;11.978;2022-10-22T02:55:42;4.03;;;3.73;;
25349;SDS011;13302;48.796;11.978;2022-10-22T02:58:29;4.10;;;3.80;;
25349;SDS011;13302;48.796;11.978;2022-10-22T03:01:17;3.93;;;3.63;;
25349;SDS011;13302;48.796;11.978;2022-10-22T03:04:04;3.10;;;2.90;;
25349;SDS011;13302;48.796;11.978;2022-10-22T03:06:51;3.30;;;3.10;;
25349;SDS011;13302;48.796;11.978;2022-10-22T03:09:38;4.70;;;3.40;;
25349;SDS011;13302;48.796;11.978;2022-10-22T03:12:25;3.63;;;3.30;;
25349;SDS011;13302;48.796;11.978;2022-10-22T03:15:12;3.53;;;3.30;;
25349;SDS011;13302;48.796;11.978;2022-10-22T03:17:59;3.60;;;3.30;;
25349;SDS011;13302;48.796;11.978;2022-10-22T03:20:46;4.00;;;3.70;;
25349;SDS011;13302;48.796;11.978;2022-10-22T03:23:33;3.83;;;3.53;;
25349;SDS011;13302;48.796;11.978;2022-10-22T03:26:21;4.10;;;3.80;;
25349;SDS011;13302;48.796;11.978;2022-10-22T03:29:09;4.70;;;3.97;;
25349;SDS011;13302;48.796;11.978;2022-10-22T03:31:58;4.23;;;3.93;;
25349;SDS011;13302;48.796;11.978;2022-10-22T03:34:45;4.30;;;4.00;;
25349;SDS011;13302;48.796;11.978;2022-10-22T03:37:32;3.83;;;3.50;;
25349;SDS011;13302;48.796;11.978;2022-10-22T03:40:21;3.97;;;3.47;;
25349;SDS011;13302;48.796;11.978;2022-10-22T03:43:08;3.80;;;3.57;;
25349;SDS011;13302;48.796;11.978;2022-10-22T03:45:55;4.80;;;3.70;;
25349;SDS011;13302;48.796;11.978;2022-10-22T03:48:42;3.40;;;3.20;;
25349;SDS011;13302;48.796;11.978;2022-10-22T03:51:29;3.57;;;3.37;;
25349;SDS011;13302;48.796;11.978;2022-10-22T03:54:16;2.90;;;2.80;;
25349;SDS011;13302;48.796;11.978;2022-10-22T03:57:04;3.30;;;3.00;;
25349;SDS011;13302;48.796;11.978;2022-10-22T03:59:51;2.90;;;2.70;;
25349;SDS011;13302;48.796;11.978;2022-10-22T04:02:38;2.93;;;2.70;;
25349;SDS011;13302;48.796;11.978;2022-10-22T04:05:26;2.90;;;2.70;;
25349;SDS011;13302;48.796;11.978;2022-10-22T04:08:13;2.70;;;2.60;;
25349;SDS011;13302;48.796;11.978;2022-10-22T04:11:00;3.00;;;2.70;;
25349;SDS011;13302;48.796;11.978;2022-10-22T04:13:47;2.47;;;2.30;;
25349;SDS011;13302;48.796;11.978;2022-10-22T04:16:34;2.30;;;2.20;;
25349;SDS011;13302;48.796;11.978;2022-10-22T04:19:21;2.60;;;2.40;;
25349;SDS011;13302;48.796;11.978;2022-10-22T04:22:08;2.23;;;2.13;;
25349;SDS011;13302;48.796;11.978;2022-10-22T04:24:55;2.60;;;2.40;;
25349;SDS011;13302;48.796;11.978;2022-10-22T04:27:42;2.20;;;2.00;;
25349;SDS011;13302;48.796;11.978;2022-10-22T04:30:29;2.33;;;2.20;;
25349;SDS011;13302;48.796;11.978;2022-10-22T04:33:16;2.10;;;2.00;;
25349;SDS011;13302;48.796;11.978;2022-10-22T04:39:00;4.03;;;1.70;;
25349;SDS011;13302;48.796;11.978;2022-10-22T04:41:48;2.00;;;1.90;;
25349;SDS011;13302;48.796;11.978;2022-10-22T04:44:35;2.37;;;1.83;;
25349;SDS011;13302;48.796;11.978;2022-10-22T04:47:22;2.20;;;2.10;;
25349;SDS011;13302;48.796;11.978;2022-10-22T04:50:09;2.00;;;1.90;;
25349;SDS011;13302;48.796;11.978;2022-10-22T04:52:56;2.13;;;2.03;;
25349;SDS011;13302;48.796;11.978;2022-10-22T04:55:43;2.30;;;1.90;;
25349;SDS011;13302;48.796;11.978;2022-10-22T04:58:30;2.07;;;1.90;;
25349;SDS011;13302;48.796;11.978;2022-10-22T05:01:18;2.20;;;2.00;;
25349;SDS011;13302;48.796;11.978;2022-10-22T05:04:13;2.20;;;2.10;;
25349;SDS011;13302;48.796;11.978;2022-10-22T05:07:02;2.03;;;1.93;;
25349;SDS011;13302;48.796;11.978;2022-10-22T05:09:49;1.73;;;1.70;;
25349;SDS011;13302;48.796;11.978;2022-10-22T05:12:36;2.30;;;2.00;;
25349;SDS011;13302;48.796;11.978;2022-10-22T05:15:23;3.73;;;1.87;;
25349;SDS011;13302;48.796;11.978;2022-10-22T05:18:10;1.80;;;1.70;;
25349;SDS011;13302;48.796;11.978;2022-10-22T05:20:57;3.03;;;1.83;;
25349;SDS011;13302;48.796;11.978;2022-10-22T05:23:44;1.80;;;1.70;;
25349;SDS011;13302;48.796;11.978;2022-10-22T05:26:32;1.70;;;1.63;;
25349;SDS011;13302;48.796;11.978;2022-10-22T05:29:19;1.77;;;1.67;;
25349;SDS011;13302;48.796;11.978;2022-10-22T05:32:07;1.87;;;1.77;;
25349;SDS011;13302;48.796;11.978;2022-10-22T05:34:54;1.70;;;1.60;;
25349;SDS011;13302;48.796;11.978;2022-10-22T05:37:41;2.70;;;1.40;;
25349;SDS011;13302;48.796;11.978;2022-10-22T05:40:28;1.17;;;1.17;;
25349;SDS011;13302;48.796;11.978;2022-10-22T05:43:17;1.00;;;1.00;;
25349;SDS011;13302;48.796;11.978;2022-10-22T05:46:05;1.00;;;1.00;;
25349;SDS011;13302;48.796;11.978;2022-10-22T05:48:57;1.40;;;1.20;;
25349;SDS011;13302;48.796;11.978;2022-10-22T05:51:45;1.47;;;1.20;;
25349;SDS011;13302;48.796;11.978;2022-10-22T05:54:32;1.23;;;1.23;;
25349;SDS011;13302;48.796;11.978;2022-10-22T05:57:20;1.03;;;0.93;;
25349;SDS011;13302;48.796;11.978;2022-10-22T06:00:07;1.20;;;1.17;;
25349;SDS011;13302;48.796;11.978;2022-10-22T06:02:59;1.20;;;1.20;;
25349;SDS011;13302;48.796;11.978;2022-10-22T06:05:46;1.10;;;1.10;;
25349;SDS011;13302;48.796;11.978;2022-10-22T06:08:33;2.37;;;1.10;;
25349;SDS011;13302;48.796;11.978;2022-10-22T06:11:21;1.23;;;1.17;;
25349;SDS011;13302;48.796;11.978;2022-10-22T06:14:09;1.20;;;1.20;;
25349;SDS011;13302;48.796;11.978;2022-10-22T06:16:57;2.03;;;1.20;;
25349;SDS011;13302;48.796;11.978;2022-10-22T06:19:45;2.30;;;1.23;;
25349;SDS011;13302;48.796;11.978;2022-10-22T06:22:32;0.90;;;0.90;;
25349;SDS011;13302;48.796;11.978;2022-10-22T06:25:19;1.00;;;1.00;;
25349;SDS011;13302;48.796;11.978;2022-10-22T06:28:06;1.33;;;1.03;;
25349;SDS011;13302;48.796;11.978;2022-10-22T06:30:53;1.40;;;0.83;;
25349;SDS011;13302;48.796;11.978;2022-10-22T06:33:42;1.13;;;1.00;;
25349;SDS011;13302;48.796;11.978;2022-10-22T06:36:29;1.67;;;1.30;;
25349;SDS011;13302;48.796;11.978;2022-10-22T06:39:16;1.10;;;1.10;;
25349;SDS011;13302;48.796;11.978;2022-10-22T06:42:04;1.10;;;1.10;;
25349;SDS011;13302;48.796;11.978;2022-10-22T06:44:53;1.03;;;1.00;;
25349;SDS011;13302;48.796;11.978;2022-10-22T06:47:40;1.20;;;1.20;;
25349;SDS011;13302;48.796;11.978;2022-10-22T06:50:27;1.10;;;1.00;;
25349;SDS011;13302;48.796;11.978;2022-10-22T06:53:14;1.10;;;1.07;;
25349;SDS011;13302;48.796;11.978;2022-10-22T06:56:12;1.00;;;1.00;;
25349;SDS011;13302;48.796;11.978;2022-10-22T06:59:01;1.73;;;1.17;;
25349;SDS011;13302;48.796;11.978;2022-10-22T07:01:49;1.60;;;1.17;;
25349;SDS011;13302;48.796;11.978;2022-10-22T07:04:36;1.00;;;1.00;;
25349;SDS011;13302;48.796;11.978;2022-10-22T07:07:23;1.07;;;1.03;;
25349;SDS011;13302;48.796;11.978;2022-10-22T07:10:10;0.83;;;0.83;;
25349;SDS011;13302;48.796;11.978;2022-10-22T07:12:57;0.90;;;0.90;;
25349;SDS011;13302;48.796;11.978;2022-10-22T07:15:44;1.13;;;1.10;;
25349;SDS011;13302;48.796;11.978;2022-10-22T07:18:32;1.33;;;1.03;;
25349;SDS011;13302;48.796;11.978;2022-10-22T07:21:19;1.13;;;1.07;;
25349;SDS011;13302;48.796;11.978;2022-10-22T07:24:07;1.03;;;1.03;;
25349;SDS011;13302;48.796;11.978;2022-10-22T07:26:54;0.90;;;0.90;;
25349;SDS011;13302;48.796;11.978;2022-10-22T07:29:41;0.93;;;0.93;;
25349;SDS011;13302;48.796;11.978;2022-10-22T07:32:28;2.37;;;1.10;;
25349;SDS011;13302;48.796;11.978;2022-10-22T07:35:15;3.13;;;1.00;;
25349;SDS011;13302;48.796;11.978;2022-10-22T07:38:02;1.33;;;1.23;;
25349;SDS011;13302;48.796;11.978;2022-10-22T07:40:49;0.90;;;0.90;;
25349;SDS011;13302;48.796;11.978;2022-10-22T07:43:37;0.90;;;0.90;;
25349;SDS011;13302;48.796;11.978;2022-10-22T07:46:24;0.83;;;0.83;;
25349;SDS011;13302;48.796;11.978;2022-10-22T07:49:12;0.80;;;0.80;;
25349;SDS011;13302;48.796;11.978;2022-10-22T07:51:59;0.97;;;0.90;;
25349;SDS011;13302;48.796;11.978;2022-10-22T07:54:46;0.80;;;0.80;;
25349;SDS011;13302;48.796;11.978;2022-10-22T07:57:33;0.80;;;0.80;;
25349;SDS011;13302;48.796;11.978;2022-10-22T08:00:20;0.80;;;0.80;;
25349;SDS011;13302;48.796;11.978;2022-10-22T08:03:11;1.60;;;0.90;;
25349;SDS011;13302;48.796;11.978;2022-10-22T08:05:59;0.73;;;0.60;;
25349;SDS011;13302;48.796;11.978;2022-10-22T08:08:46;1.10;;;0.60;;
25349;SDS011;13302;48.796;11.978;2022-10-22T08:11:33;1.70;;;0.80;;
25349;SDS011;13302;48.796;11.978;2022-10-22T08:14:20;0.73;;;0.73;;
25349;SDS011;13302;48.796;11.978;2022-10-22T08:17:07;0.83;;;0.70;;
25349;SDS011;13302;48.796;11.978;2022-10-22T08:19:54;1.13;;;0.63;;
25349;SDS011;13302;48.796;11.978;2022-10-22T08:22:41;1.27;;;0.60;;
25349;SDS011;13302;48.796;11.978;2022-10-22T08:25:28;3.30;;;0.80;;
25349;SDS011;13302;48.796;11.978;2022-10-22T08:28:15;0.70;;;0.70;;
25349;SDS011;13302;48.796;11.978;2022-10-22T08:31:07;0.77;;;0.77;;
25349;SDS011;13302;48.796;11.978;2022-10-22T08:33:55;1.07;;;0.40;;
25349;SDS011;13302;48.796;11.978;2022-10-22T08:36:41;0.70;;;0.70;;
25349;SDS011;13302;48.796;11.978;2022-10-22T08:39:29;0.73;;;0.70;;
25349;SDS011;13302;48.796;11.978;2022-10-22T08:51:10;1.13;;;0.70;;
25349;SDS011;13302;48.796;11.978;2022-10-22T09:00:24;0.53;;;0.50;;
25349;SDS011;13302;48.796;11.978;2022-10-22T09:06:21;0.60;;;0.60;;
25349;SDS011;13302;48.796;11.978;2022-10-22T09:09:11;0.47;;;0.47;;
25349;SDS011;13302;48.796;11.978;2022-10-22T09:12:03;0.70;;;0.70;;
25349;SDS011;13302;48.796;11.978;2022-10-22T09:14:50;0.50;;;0.50;;
25349;SDS011;13302;48.796;11.978;2022-10-22T09:17:40;0.40;;;0.40;;
25349;SDS011;13302;48.796;11.978;2022-10-22T09:20:57;0.50;;;0.50;;
25349;SDS011;13302;48.796;11.978;2022-10-22T09:26:51;1.13;;;0.60;;
25349;SDS011;13302;48.796;11.978;2022-10-22T09:29:38;1.90;;;0.60;;
25349;SDS011;13302;48.796;11.978;2022-10-22T09:32:26;0.60;;;0.60;;
25349;SDS011;13302;48.796;11.978;2022-10-22T09:35:20;0.83;;;0.67;;
25349;SDS011;13302;48.796;11.978;2022-10-22T09:38:10;1.70;;;0.80;;
25349;SDS011;13302;48.796;11.978;2022-10-22T09:41:00;1.63;;;0.63;;
25349;SDS011;13302;48.796;11.978;2022-10-22T09:43:51;0.50;;;0.50;;
25349;SDS011;13302;48.796;11.978;2022-10-22T09:46:39;0.53;;;0.53;;
25349;SDS011;13302;48.796;11.978;2022-10-22T09:49:32;1.80;;;0.70;;
25349;SDS011;13302;48.796;11.978;2022-10-22T09:52:32;0.60;;;0.60;;
25349;SDS011;13302;48.796;11.978;2022-10-22T09:55:20;1.10;;;0.50;;
25349;SDS011;13302;48.796;11.978;2022-10-22T09:58:10;2.20;;;0.87;;
25349;SDS011;13302;48.796;11.978;2022-10-22T10:00:59;2.07;;;1.87;;
25349;SDS011;13302;48.796;11.978;2022-10-22T10:03:47;1.10;;;1.10;;
25349;SDS011;13302;48.796;11.978;2022-10-22T10:06:35;0.93;;;0.70;;
25349;SDS011;13302;48.796;11.978;2022-10-22T10:09:28;1.20;;;0.50;;
25349;SDS011;13302;48.796;11.978;2022-10-22T10:18:02;1.70;;;0.60;;
25349;SDS011;13302;48.796;11.978;2022-10-22T10:30:09;0.97;;;0.80;;
25349;SDS011;13302;48.796;11.978;2022-10-22T10:36:15;0.63;;;0.63;;
25349;SDS011;13302;48.796;11.978;2022-10-22T10:39:35;0.67;;;0.50;;
25349;SDS011;13302;48.796;11.978;2022-10-22T11:07:56;0.80;;;0.60;;
25349;SDS011;13302;48.796;11.978;2022-10-22T11:10:49;0.40;;;0.40;;
25349;SDS011;13302;48.796;11.978;2022-10-22T11:13:42;1.30;;;0.60;;
25349;SDS011;13302;48.796;11.978;2022-10-22T11:16:53;0.60;;;0.60;;
25349;SDS011;13302;48.796;11.978;2022-10-22T11:19:55;1.30;;;0.60;;
25349;SDS011;13302;48.796;11.978;2022-10-22T11:22:56;0.37;;;0.37;;
25349;SDS011;13302;48.796;11.978;2022-10-22T11:26:09;0.60;;;0.60;;
25349;SDS011;13302;48.796;11.978;2022-10-22T11:29:06;0.53;;;0.50;;
25349;SDS011;13302;48.796;11.978;2022-10-22T11:31:58;1.17;;;0.70;;
25349;SDS011;13302;48.796;11.978;2022-10-22T11:34:49;0.50;;;0.50;;
25349;SDS011;13302;48.796;11.978;2022-10-22T11:37:40;1.20;;;0.60;;
25349;SDS011;13302;48.796;11.978;2022-10-22T11:40:32;0.67;;;0.67;;
25349;SDS011;13302;48.796;11.978;2022-10-22T11:47:07;2.00;;;0.80;;
25349;SDS011;13302;48.796;11.978;2022-10-22T11:50:14;0.60;;;0.60;;
25349;SDS011;13302;48.796;11.978;2022-10-22T11:53:03;0.50;;;0.50;;
25349;SDS011;13302;48.796;11.978;2022-10-22T11:55:57;1.70;;;0.80;;
25349;SDS011;13302;48.796;11.978;2022-10-22T11:58:50;1.07;;;0.70;;
25349;SDS011;13302;48.796;11.978;2022-10-22T12:01:41;1.30;;;0.50;;
25349;SDS011;13302;48.796;11.978;2022-10-22T12:04:41;0.50;;;0.50;;
25349;SDS011;13302;48.796;11.978;2022-10-22T12:07:33;0.70;;;0.70;;
25349;SDS011;13302;48.796;11.978;2022-10-22T12:10:35;0.60;;;0.60;;
25349;SDS011;13302;48.796;11.978;2022-10-22T12:16:45;0.60;;;0.60;;
25349;SDS011;13302;48.796;11.978;2022-10-22T12:19:43;0.70;;;0.70;;
25349;SDS011;13302;48.796;11.978;2022-10-22T12:22:33;0.67;;;0.67;;
25349;SDS011;13302;48.796;11.978;2022-10-22T12:25:25;0.63;;;0.47;;
25349;SDS011;13302;48.796;11.978;2022-10-22T12:28:21;0.50;;;0.50;;
25349;SDS011;13302;48.796;11.978;2022-10-22T12:31:14;0.47;;;0.47;;
25349;SDS011;13302;48.796;11.978;2022-10-22T12:34:02;0.90;;;0.67;;
25349;SDS011;13302;48.796;11.978;2022-10-22T12:36:50;1.40;;;0.60;;
25349;SDS011;13302;48.796;11.978;2022-10-22T12:39:38;0.60;;;0.60;;
25349;SDS011;13302;48.796;11.978;2022-10-22T12:42:26;0.63;;;0.63;;
25349;SDS011;13302;48.796;11.978;2022-10-22T12:45:13;0.50;;;0.50;;
25349;SDS011;13302;48.796;11.978;2022-10-22T12:48:01;0.53;;;0.53;;
25349;SDS011;13302;48.796;11.978;2022-10-22T12:50:54;1.30;;;0.43;;
25349;SDS011;13302;48.796;11.978;2022-10-22T12:56:33;0.47;;;0.43;;
25349;SDS011;13302;48.796;11.978;2022-10-22T12:59:24;0.40;;;0.40;;
25349;SDS011;13302;48.796;11.978;2022-10-22T13:02:30;0.50;;;0.50;;
25349;SDS011;13302;48.796;11.978;2022-10-22T13:05:24;0.53;;;0.53;;
25349;SDS011;13302;48.796;11.978;2022-10-22T13:08:16;1.03;;;0.43;;
25349;SDS011;13302;48.796;11.978;2022-10-22T13:11:07;0.50;;;0.50;;
25349;SDS011;13302;48.796;11.978;2022-10-22T13:14:02;0.50;;;0.50;;
25349;SDS011;13302;48.796;11.978;2022-10-22T13:22:53;0.60;;;0.60;;
25349;SDS011;13302;48.796;11.978;2022-10-22T13:25:57;1.07;;;0.50;;
25349;SDS011;13302;48.796;11.978;2022-10-22T13:28:54;6.00;;;1.10;;
25349;SDS011;13302;48.796;11.978;2022-10-22T13:31:45;0.83;;;0.63;;
25349;SDS011;13302;48.796;11.978;2022-10-22T13:34:33;0.50;;;0.50;;
25349;SDS011;13302;48.796;11.978;2022-10-22T13:37:21;0.50;;;0.50;;
25349;SDS011;13302;48.796;11.978;2022-10-22T13:40:10;0.70;;;0.70;;
25349;SDS011;13302;48.796;11.978;2022-10-22T13:43:00;1.77;;;0.70;;
25349;SDS011;13302;48.796;11.978;2022-10-22T13:45:48;1.13;;;0.70;;
25349;SDS011;13302;48.796;11.978;2022-10-22T13:48:38;0.70;;;0.70;;
25349;SDS011;13302;48.796;11.978;2022-10-22T13:51:31;0.50;;;0.50;;
25349;SDS011;13302;48.796;11.978;2022-10-22T13:54:21;1.07;;;0.50;;
25349;SDS011;13302;48.796;11.978;2022-10-22T13:57:10;0.60;;;0.60;;
25349;SDS011;13302;48.796;11.978;2022-10-22T13:59:57;0.50;;;0.50;;
25349;SDS011;13302;48.796;11.978;2022-10-22T14:02:48;0.60;;;0.60;;
25349;SDS011;13302;48.796;11.978;2022-10-22T14:05:37;1.60;;;0.70;;
25349;SDS011;13302;48.796;11.978;2022-10-22T14:08:25;0.50;;;0.50;;
25349;SDS011;13302;48.796;11.978;2022-10-22T14:11:14;0.60;;;0.60;;
25349;SDS011;13302;48.796;11.978;2022-10-22T14:14:01;0.63;;;0.63;;
25349;SDS011;13302;48.796;11.978;2022-10-22T14:16:54;0.63;;;0.63;;
25349;SDS011;13302;48.796;11.978;2022-10-22T14:19:42;0.57;;;0.57;;
25349;SDS011;13302;48.796;11.978;2022-10-22T14:22:31;0.47;;;0.47;;
25349;SDS011;13302;48.796;11.978;2022-10-22T14:25:20;0.67;;;0.50;;
25349;SDS011;13302;48.796;11.978;2022-10-22T14:28:09;0.70;;;0.70;;
25349;SDS011;13302;48.796;11.978;2022-10-22T14:30:57;0.60;;;0.60;;
25349;SDS011;13302;48.796;11.978;2022-10-22T14:33:44;0.50;;;0.50;;
25349;SDS011;13302;48.796;11.978;2022-10-22T14:36:31;0.60;;;0.60;;
25349;SDS011;13302;48.796;11.978;2022-10-22T14:39:18;0.60;;;0.60;;
25349;SDS011;13302;48.796;11.978;2022-10-22T14:42:09;0.50;;;0.50;;
25349;SDS011;13302;48.796;11.978;2022-10-22T14:44:57;0.63;;;0.60;;
25349;SDS011;13302;48.796;11.978;2022-10-22T14:47:45;4.60;;;0.80;;
25349;SDS011;13302;48.796;11.978;2022-10-22T14:50:33;0.70;;;0.70;;
25349;SDS011;13302;48.796;11.978;2022-10-22T14:53:20;0.70;;;0.70;;
25349;SDS011;13302;48.796;11.978;2022-10-22T14:56:10;0.60;;;0.60;;
25349;SDS011;13302;48.796;11.978;2022-10-22T14:58:58;0.60;;;0.40;;
25349;SDS011;13302;48.796;11.978;2022-10-22T15:01:45;0.47;;;0.47;;
25349;SDS011;13302;48.796;11.978;2022-10-22T15:04:32;2.23;;;0.60;;
25349;SDS011;13302;48.796;11.978;2022-10-22T15:07:19;0.60;;;0.60;;
25349;SDS011;13302;48.796;11.978;2022-10-22T15:10:07;0.40;;;0.40;;
25349;SDS011;13302;48.796;11.978;2022-10-22T15:12:54;1.23;;;0.50;;
25349;SDS011;13302;48.796;11.978;2022-10-22T15:15:41;0.60;;;0.60;;
25349;SDS011;13302;48.796;11.978;2022-10-22T15:18:28;0.57;;;0.57;;
25349;SDS011;13302;48.796;11.978;2022-10-22T15:21:17;3.30;;;0.60;;
25349;SDS011;13302;48.796;11.978;2022-10-22T15:24:05;0.50;;;0.50;;
25349;SDS011;13302;48.796;11.978;2022-10-22T15:26:53;1.23;;;0.70;;
25349;SDS011;13302;48.796;11.978;2022-10-22T15:29:40;0.50;;;0.50;;
25349;SDS011;13302;48.796;11.978;2022-10-22T15:32:28;0.60;;;0.60;;
25349;SDS011;13302;48.796;11.978;2022-10-22T15:35:15;0.60;;;0.60;;
25349;SDS011;13302;48.796;11.978;2022-10-22T15:38:02;0.60;;;0.60;;
25349;SDS011;13302;48.796;11.978;2022-10-22T15:40:59;0.97;;;0.50;;
25349;SDS011;13302;48.796;11.978;2022-10-22T15:43:51;2.80;;;0.60;;
25349;SDS011;13302;48.796;11.978;2022-10-22T15:46:38;1.70;;;0.80;;
25349;SDS011;13302;48.796;11.978;2022-10-22T15:49:26;0.70;;;0.70;;
25349;SDS011;13302;48.796;11.978;2022-10-22T15:52:14;0.80;;;0.80;;
25349;SDS011;13302;48.796;11.978;2022-10-22T15:55:01;1.50;;;1.00;;
25349;SDS011;13302;48.796;11.978;2022-10-22T15:57:55;1.63;;;0.60;;
25349;SDS011;13302;48.796;11.978;2022-10-22T16:00:47;0.60;;;0.50;;
25349;SDS011;13302;48.796;11.978;2022-10-22T16:03:34;0.63;;;0.60;;
25349;SDS011;13302;48.796;11.978;2022-10-22T16:06:22;0.60;;;0.60;;
25349;SDS011;13302;48.796;11.978;2022-10-22T16:09:10;1.37;;;0.67;;
25349;SDS011;13302;48.796;11.978;2022-10-22T16:11:59;1.27;;;0.70;;
25349;SDS011;13302;48.796;11.978;2022-10-22T16:14:48;0.80;;;0.80;;
25349;SDS011;13302;48.796;11.978;2022-10-22T16:17:36;0.40;;;0.40;;
25349;SDS011;13302;48.796;11.978;2022-10-22T16:20:23;3.20;;;0.63;;
25349;SDS011;13302;48.796;11.978;2022-10-22T16:23:10;1.77;;;0.50;;
25349;SDS011;13302;48.796;11.978;2022-10-22T16:25:59;2.13;;;0.67;;
25349;SDS011;13302;48.796;11.978;2022-10-22T16:28:47;2.40;;;0.43;;
25349;SDS011;13302;48.796;11.978;2022-10-22T16:31:34;2.33;;;0.67;;
25349;SDS011;13302;48.796;11.978;2022-10-22T16:34:21;4.33;;;0.70;;
25349;SDS011;13302;48.796;11.978;2022-10-22T16:37:08;1.13;;;0.50;;
25349;SDS011;13302;48.796;11.978;2022-10-22T16:39:56;2.67;;;0.50;;
25349;SDS011;13302;48.796;11.978;2022-10-22T16:42:43;1.43;;;0.50;;
25349;SDS011;13302;48.796;11.978;2022-10-22T16:45:30;1.73;;;0.50;;
25349;SDS011;13302;48.796;11.978;2022-10-22T16:48:17;0.43;;;0.43;;
25349;SDS011;13302;48.796;11.978;2022-10-22T16:51:05;2.50;;;0.80;;
25349;SDS011;13302;48.796;11.978;2022-10-22T16:53:54;0.77;;;0.57;;
25349;SDS011;13302;48.796;11.978;2022-10-22T16:56:42;0.70;;;0.60;;
25349;SDS011;13302;48.796;11.978;2022-10-22T16:59:29;2.13;;;0.60;;
25349;SDS011;13302;48.796;11.978;2022-10-22T17:02:16;1.70;;;0.60;;
25349;SDS011;13302;48.796;11.978;2022-10-22T17:05:03;0.90;;;0.80;;
25349;SDS011;13302;48.796;11.978;2022-10-22T17:07:50;1.37;;;1.00;;
25349;SDS011;13302;48.796;11.978;2022-10-22T17:10:37;0.70;;;0.70;;
25349;SDS011;13302;48.796;11.978;2022-10-22T17:13:25;1.33;;;0.77;;
25349;SDS011;13302;48.796;11.978;2022-10-22T17:16:13;0.77;;;0.77;;
25349;SDS011;13302;48.796;11.978;2022-10-22T17:19:02;2.07;;;1.03;;
25349;SDS011;13302;48.796;11.978;2022-10-22T17:21:49;3.73;;;1.30;;
25349;SDS011;13302;48.796;11.978;2022-10-22T17:24:39;1.70;;;1.10;;
25349;SDS011;13302;48.796;11.978;2022-10-22T17:27:29;3.43;;;0.70;;
25349;SDS011;13302;48.796;11.978;2022-10-22T17:30:17;0.83;;;0.83;;
25349;SDS011;13302;48.796;11.978;2022-10-22T17:33:12;1.57;;;0.93;;
25349;SDS011;13302;48.796;11.978;2022-10-22T17:35:59;1.27;;;1.17;;
25349;SDS011;13302;48.796;11.978;2022-10-22T17:38:47;1.17;;;1.00;;
25349;SDS011;13302;48.796;11.978;2022-10-22T17:41:36;1.30;;;1.20;;
25349;SDS011;13302;48.796;11.978;2022-10-22T17:44:23;0.80;;;0.80;;
25349;SDS011;13302;48.796;11.978;2022-10-22T17:47:10;1.33;;;0.70;;
25349;SDS011;13302;48.796;11.978;2022-10-22T17:49:57;1.27;;;1.10;;
25349;SDS011;13302;48.796;11.978;2022-10-22T17:52:44;1.07;;;0.70;;
25349;SDS011;13302;48.796;11.978;2022-10-22T17:55:32;1.80;;;1.00;;
25349;SDS011;13302;48.796;11.978;2022-10-22T17:58:20;1.03;;;0.93;;
25349;SDS011;13302;48.796;11.978;2022-10-22T18:01:14;0.87;;;0.87;;
25349;SDS011;13302;48.796;11.978;2022-10-22T18:04:04;2.07;;;0.80;;
25349;SDS011;13302;48.796;11.978;2022-10-22T18:06:53;1.60;;;0.70;;
25349;SDS011;13302;48.796;11.978;2022-10-22T18:09:40;1.47;;;0.43;;
25349;SDS011;13302;48.796;11.978;2022-10-22T18:12:28;2.00;;;0.77;;
25349;SDS011;13302;48.796;11.978;2022-10-22T18:15:15;2.73;;;1.00;;
25349;SDS011;13302;48.796;11.978;2022-10-22T18:18:02;1.13;;;1.10;;
25349;SDS011;13302;48.796;11.978;2022-10-22T18:20:50;1.30;;;1.00;;
25349;SDS011;13302;48.796;11.978;2022-10-22T18:23:38;1.17;;;1.17;;
25349;SDS011;13302;48.796;11.978;2022-10-22T18:26:25;3.03;;;1.70;;
25349;SDS011;13302;48.796;11.978;2022-10-22T18:29:14;1.37;;;1.20;;